Time;durP1;ratioP1;P1;durP2;ratioP2;P2;SDS_P1;SDS_P2;PMS_P1;PMS_P2;Temp;Humidity;BMP_temperature;BMP_pressure;BME280_temperature;BME280_humidity;BME280_pressure;Samples;Min_cycle;Max_cycle;Signal;HPM_P1;HPM_P2
2021/07/05 00:00:59;;;;;;;2.95;1.17;;;19.70;99.90;;;19.08;100.00;99878.94;5026843;28;20041;-57
2021/07/05 00:03:25;;;;;;;1.92;0.95;;;19.60;99.90;;;19.08;100.00;99876.31;5027928;28;20500;-57
2021/07/05 00:05:51;;;;;;;2.38;1.42;;;19.70;99.90;;;19.07;100.00;99877.34;5027781;28;20114;-51
2021/07/05 00:08:17;;;;;;;2.33;1.42;;;19.60;99.90;;;19.06;100.00;99874.91;5027963;28;20029;-54
2021/07/05 00:10:43;;;;;;;3.63;1.60;;;19.70;99.90;;;19.03;100.00;99872.69;5027742;28;20065;-55
2021/07/05 00:13:08;;;;;;;3.47;1.92;;;19.60;99.90;;;18.99;100.00;99874.13;5027822;28;20050;-56
2021/07/05 00:15:35;;;;;;;5.85;1.40;;;19.60;99.90;;;19.00;100.00;99867.84;5027718;28;20060;-53
2021/07/05 00:18:07;;;;;;;2.05;1.25;;;19.60;99.90;;;19.02;100.00;99871.06;5027664;28;20550;-56
2021/07/05 00:20:40;;;;;;;1.65;1.38;;;19.60;99.90;;;19.04;100.00;99871.66;5027744;28;20034;-56
2021/07/05 00:23:07;;;;;;;1.85;1.27;;;19.60;99.90;;;19.03;100.00;99877.97;5027612;28;20033;-55
2021/07/05 00:25:35;;;;;;;7.10;1.48;;;19.60;99.90;;;19.02;100.00;99879.81;5027400;28;20029;-53
2021/07/05 00:28:02;;;;;;;3.88;1.95;;;19.60;99.90;;;19.02;100.00;99879.00;5027602;28;20085;-56
2021/07/05 00:30:28;;;;;;;4.13;1.60;;;19.60;99.90;;;19.03;100.00;99880.59;5027617;28;20056;-57
2021/07/05 00:32:54;;;;;;;2.95;1.45;;;19.60;99.90;;;19.04;100.00;99877.75;5027610;28;20489;-56
2021/07/05 00:35:23;;;;;;;4.32;1.98;;;19.60;99.90;;;19.08;100.00;99883.41;5027693;28;20048;-56
2021/07/05 00:37:49;;;;;;;3.97;1.70;;;19.60;99.90;;;19.10;100.00;99884.03;5026136;28;20044;-55
2021/07/05 00:40:17;;;;;;;2.90;1.55;;;19.70;99.90;;;19.06;100.00;99881.00;5027372;28;20446;-55
2021/07/05 00:42:44;;;;;;;4.32;1.80;;;19.60;99.90;;;19.03;100.00;99883.25;5025797;28;20413;-57
2021/07/05 00:45:11;;;;;;;2.45;1.23;;;19.60;99.90;;;18.88;100.00;99875.66;5026056;28;20034;-54
2021/07/05 00:47:37;;;;;;;6.13;1.35;;;19.60;99.90;;;18.79;100.00;99880.38;5027725;28;20044;-54
2021/07/05 00:50:06;;;;;;;3.63;1.10;;;19.50;99.90;;;18.66;100.00;99874.34;5027437;28;20149;-57
2021/07/05 00:52:35;;;;;;;1.10;0.70;;;19.30;99.90;;;18.58;100.00;99867.44;5027360;28;20062;-57
2021/07/05 00:55:02;;;;;;;2.05;0.60;;;19.20;99.90;;;18.60;100.00;99864.59;5027290;28;20080;-56
2021/07/05 00:57:28;;;;;;;5.18;0.50;;;19.20;99.90;;;18.65;100.00;99857.72;5027675;28;20051;-52
2021/07/05 00:59:57;;;;;;;1.30;0.50;;;19.20;99.90;;;18.69;100.00;99863.38;5027652;28;20037;-55
2021/07/05 01:02:25;;;;;;;1.17;0.40;;;19.20;99.90;;;18.66;100.00;99850.59;5027473;28;20030;-57
2021/07/05 01:04:52;;;;;;;0.40;0.30;;;19.20;99.90;;;18.66;100.00;99850.59;5027335;28;20061;-54
2021/07/05 01:07:20;;;;;;;0.60;0.30;;;19.20;99.90;;;18.66;100.00;99843.50;5027104;28;20551;-55
2021/07/05 01:09:46;;;;;;;2.50;0.30;;;19.20;99.90;;;18.66;100.00;99843.50;5027221;28;20461;-52
2021/07/05 01:12:12;;;;;;;3.05;0.28;;;19.20;99.90;;;18.67;100.00;99853.03;5042255;28;20030;-52
2021/07/05 01:14:40;;;;;;;2.70;0.30;;;19.20;99.90;;;18.67;100.00;99845.13;5027205;28;20569;-52
2021/07/05 01:17:10;;;;;;;4.63;0.30;;;19.20;99.90;;;18.66;100.00;99850.59;5029965;28;20036;-52
2021/07/05 01:19:48;;;;;;;0.32;0.10;;;19.20;99.90;;;18.66;100.00;99848.78;5029581;28;20029;-54
2021/07/05 01:22:16;;;;;;;2.83;0.20;;;19.20;99.90;;;18.73;99.72;99852.19;5031370;28;20064;-56
2021/07/05 01:24:45;;;;;;;2.38;0.20;;;19.30;99.90;;;18.70;99.35;99854.44;5029488;28;20040;-54
2021/07/05 01:27:12;;;;;;;0.95;0.20;;;19.30;99.90;;;18.69;99.38;99852.81;5030741;28;20114;-57
2021/07/05 01:29:41;;;;;;;1.05;0.28;;;19.30;99.90;;;18.79;97.02;99834.69;5030580;28;20217;-54
2021/07/05 01:32:09;;;;;;;0.60;0.20;;;19.30;99.90;;;18.84;95.90;99835.69;5030483;28;20171;-56
2021/07/05 01:34:36;;;;;;;5.20;0.20;;;19.30;99.90;;;18.75;97.13;99826.41;5028950;28;20030;-56
2021/07/05 01:37:05;;;;;;;2.75;0.30;;;19.30;99.90;;;18.67;97.44;99844.31;5031000;28;20299;-58
2021/07/05 01:39:31;;;;;;;3.65;0.30;;;19.30;99.90;;;18.64;97.86;99852.63;5030495;28;20067;-56
2021/07/05 01:41:57;;;;;;;1.02;0.20;;;19.20;99.90;;;18.63;98.63;99843.91;5030233;28;20107;-53
2021/07/05 01:44:23;;;;;;;1.20;0.20;;;19.20;99.90;;;18.54;99.22;99851.22;5030382;28;20057;-53
2021/07/05 01:46:49;;;;;;;3.33;0.60;;;19.20;99.90;;;18.52;99.72;99847.19;5030090;28;20668;-53
2021/07/05 01:49:14;;;;;;;3.75;0.22;;;19.10;99.90;;;18.49;100.00;99858.97;5030377;28;20363;-57
2021/07/05 01:51:40;;;;;;;6.00;0.50;;;19.10;99.90;;;18.48;100.00;99869.72;5028906;28;20029;-56
2021/07/05 01:54:07;;;;;;;3.03;0.30;;;19.10;99.90;;;18.47;100.00;99868.09;5030230;28;20386;-56
2021/07/05 01:56:33;;;;;;;2.13;0.40;;;19.00;99.90;;;18.52;100.00;99863.81;5030119;28;20435;-54
2021/07/05 01:58:59;;;;;;;1.67;0.20;;;19.10;99.90;;;18.52;100.00;99863.81;5030076;28;20041;-58
2021/07/05 02:01:26;;;;;;;1.08;0.22;;;19.10;99.90;;;18.62;99.51;99862.59;5029863;28;20021;-57
2021/07/05 02:03:52;;;;;;;0.40;0.20;;;19.10;99.90;;;18.56;100.00;99859.75;5030208;28;20059;-57
2021/07/05 02:06:18;;;;;;;1.25;0.40;;;19.10;99.90;;;18.48;100.00;99862.63;5030163;28;20460;-53
2021/07/05 02:08:44;;;;;;;7.97;0.90;;;19.10;99.90;;;18.47;100.00;99870.75;5029996;28;20394;-55
2021/07/05 02:11:09;;;;;;;6.20;0.50;;;19.00;99.90;;;18.46;100.00;99861.22;5029910;28;20120;-55
2021/07/05 02:13:37;;;;;;;1.70;0.30;;;19.00;99.90;;;18.48;100.00;99872.38;5029923;28;20090;-55
2021/07/05 02:16:05;;;;;;;6.90;0.40;;;19.10;99.90;;;18.47;100.00;99868.09;5045050;28;20033;-56
2021/07/05 02:18:33;;;;;;;2.15;0.20;;;19.00;99.90;;;18.51;100.00;99874.59;5030229;28;20115;-56
2021/07/05 02:21:04;;;;;;;2.58;0.20;;;19.00;99.90;;;18.52;99.72;99889.41;5044972;28;20060;-52
2021/07/05 02:23:32;;;;;;;3.42;0.30;;;19.10;99.90;;;18.50;99.97;99894.06;5030040;28;20060;-52
2021/07/05 02:25:59;;;;;;;1.00;0.30;;;19.10;99.90;;;18.48;100.00;99882.91;5029823;28;20029;-57
2021/07/05 02:28:29;;;;;;;6.05;0.40;;;19.10;99.90;;;18.44;100.00;99892.25;5028973;28;20037;-54
2021/07/05 02:30:56;;;;;;;1.00;0.30;;;19.00;99.90;;;18.41;100.00;99882.16;5028515;28;20361;-55
2021/07/05 02:33:26;;;;;;;0.50;0.30;;;19.00;99.90;;;18.37;100.00;99886.22;5029645;28;20065;-57
2021/07/05 02:35:53;;;;;;;4.43;0.30;;;18.90;99.90;;;18.37;100.00;99880.97;5027841;28;20104;-54
2021/07/05 02:38:21;;;;;;;3.22;0.40;;;18.90;99.90;;;18.35;100.00;99883.00;5029415;28;20033;-56
2021/07/05 02:43:24;;;;;;;0.65;0.30;;;18.90;99.90;;;18.38;100.00;99893.13;4899788;22;20068;-55
2021/07/05 02:45:53;;;;;;;4.80;0.40;;;19.00;99.90;;;18.35;100.00;99890.91;5011810;28;20056;-52
2021/07/05 02:48:23;;;;;;;4.53;0.40;;;18.90;99.90;;;18.34;100.00;99897.19;5011431;28;20041;-56
2021/07/05 02:50:57;;;;;;;1.00;0.30;;;18.90;99.90;;;18.33;100.00;99890.31;5029187;28;20037;-58
2021/07/05 02:53:23;;;;;;;2.95;0.40;;;18.90;99.90;;;18.28;100.00;99887.47;5029656;28;20116;-55
2021/07/05 02:55:49;;;;;;;4.32;0.40;;;18.80;99.90;;;18.26;100.00;99897.44;5029077;28;20117;-53
2021/07/05 02:58:16;;;;;;;1.58;0.20;;;18.80;99.90;;;18.22;100.00;99889.13;5029190;28;20025;-55
2021/07/05 03:00:47;;;;;;;1.17;0.20;;;18.80;99.90;;;18.21;100.00;99887.50;5028839;28;20484;-55
2021/07/05 03:03:15;;;;;;;5.03;0.30;;;18.80;99.90;;;18.24;100.00;99905.53;5029000;28;20038;-54
2021/07/05 03:05:41;;;;;;;4.05;0.50;;;18.80;99.90;;;18.22;100.00;99911.03;5027380;28;20439;-56
2021/07/05 03:08:07;;;;;;;2.75;0.40;;;18.80;99.90;;;18.19;100.00;99911.44;5028862;28;20316;-55
2021/07/05 03:10:36;;;;;;;1.85;0.40;;;18.80;99.90;;;18.13;100.00;99909.63;5028773;28;20109;-54
2021/07/05 03:13:08;;;;;;;6.28;0.30;;;18.70;99.90;;;18.08;100.00;99904.16;5027279;28;20068;-54
2021/07/05 03:15:34;;;;;;;2.97;0.40;;;18.60;99.90;;;18.10;100.00;99910.03;5028703;28;20460;-56
2021/07/05 03:18:01;;;;;;;6.85;0.43;;;18.60;99.90;;;18.14;100.00;99913.88;5028936;28;20120;-56
2021/07/05 03:20:32;;;;;;;0.98;0.47;;;18.70;99.90;;;18.17;100.00;99924.00;5028730;28;20041;-57
2021/07/05 03:23:00;;;;;;;3.13;0.40;;;18.70;99.90;;;18.20;100.00;99920.16;5028779;28;20049;-58
2021/07/05 03:25:31;;;;;;;4.50;0.52;;;18.80;99.90;;;18.22;100.00;99926.84;5027416;28;20093;-58
2021/07/05 03:27:58;;;;;;;2.00;0.40;;;18.80;99.90;;;18.22;100.00;99942.66;5027151;28;20119;-57
2021/07/05 03:30:26;;;;;;;4.32;0.68;;;18.80;99.90;;;18.21;100.00;99943.69;5028467;28;20590;-61
2021/07/05 03:32:53;;;;;;;5.68;0.40;;;18.80;99.90;;;18.18;100.00;99945.91;5028681;28;20037;-58
2021/07/05 03:35:19;;;;;;;3.95;0.65;;;18.80;99.90;;;18.20;100.00;99954.44;5028569;28;20045;-54
2021/07/05 03:37:47;;;;;;;2.38;0.30;;;18.80;99.90;;;18.24;100.00;99956.44;5028554;28;20060;-53
2021/07/05 03:40:19;;;;;;;3.47;0.55;;;18.80;99.90;;;18.29;100.00;99974.28;5028064;28;20026;-56
2021/07/05 03:42:46;;;;;;;2.75;0.43;;;18.90;99.90;;;18.32;100.00;99963.34;5028304;28;20099;-57
2021/07/05 03:45:14;;;;;;;3.25;0.32;;;18.90;99.90;;;18.40;100.00;99971.03;5026963;28;20042;-55
2021/07/05 03:47:41;;;;;;;1.80;0.35;;;18.90;99.90;;;18.42;100.00;99974.25;5028398;28;20042;-58
2021/07/05 03:50:09;;;;;;;0.88;0.20;;;19.00;99.90;;;18.44;100.00;99976.66;5028354;28;20037;-55
2021/07/05 03:52:36;;;;;;;5.50;0.30;;;19.00;99.90;;;18.44;100.00;99974.84;5027953;28;20061;-60
2021/07/05 03:55:08;;;;;;;2.15;0.40;;;19.00;99.90;;;18.58;100.00;99980.91;5028314;28;20441;-59
2021/07/05 03:57:34;;;;;;;3.53;0.40;;;19.10;99.90;;;18.58;100.00;99978.25;5026799;28;20123;-57
2021/07/05 04:00:00;;;;;;;5.47;0.60;;;19.20;99.90;;;18.56;100.00;99972.38;5027948;28;20519;-56
2021/07/05 04:02:27;;;;;;;2.85;0.38;;;19.20;99.90;;;18.56;100.00;99964.47;5027800;28;20036;-58
2021/07/05 04:04:56;;;;;;;0.50;0.30;;;19.10;99.90;;;18.57;100.00;99966.09;5027973;28;20034;-59
2021/07/05 04:07:22;;;;;;;0.55;0.30;;;19.20;99.90;;;18.62;100.00;99968.13;5027525;28;20037;-56
2021/07/05 04:09:48;;;;;;;2.35;0.50;;;19.20;99.90;;;18.70;100.00;99966.06;5026326;28;20045;-57
2021/07/05 04:12:19;;;;;;;0.60;0.30;;;19.30;99.90;;;18.72;100.00;99969.31;5028036;28;20026;-59
2021/07/05 04:14:45;;;;;;;3.25;0.32;;;19.30;99.90;;;18.76;100.00;99965.22;5026220;28;20058;-59
2021/07/05 04:17:11;;;;;;;2.60;0.43;;;19.30;99.90;;;18.76;99.73;99980.25;5028391;28;20364;-59
2021/07/05 04:19:37;;;;;;;3.72;0.60;;;19.40;99.90;;;18.81;98.88;99983.91;5027608;28;20037;-60
2021/07/05 04:22:04;;;;;;;3.55;0.60;;;19.40;99.90;;;18.71;98.39;99985.34;5027794;28;20030;-60
2021/07/05 04:24:30;;;;;;;3.10;0.40;;;19.40;99.90;;;18.67;98.65;99990.22;5027879;28;20356;-60
2021/07/05 04:26:56;;;;;;;3.50;0.90;;;19.30;99.90;;;18.71;98.52;99993.25;5027014;28;20127;-57
2021/07/05 04:29:22;;;;;;;2.05;0.85;;;19.30;99.90;;;18.76;98.34;99999.53;5027391;28;20033;-56
2021/07/05 04:31:48;;;;;;;1.40;0.60;;;19.40;99.90;;;18.77;98.00;100003.00;5027503;28;20033;-60
2021/07/05 04:34:14;;;;;;;2.05;0.60;;;19.40;99.90;;;18.76;98.11;99990.81;5027378;28;20337;-61
2021/07/05 04:36:40;;;;;;;4.22;1.30;;;19.40;99.90;;;18.84;97.38;99994.03;5027410;28;20124;-59
2021/07/05 04:39:07;;;;;;;2.80;0.60;;;19.40;99.90;;;18.97;96.54;99992.34;5027369;28;20133;-59
2021/07/05 04:41:35;;;;;;;4.25;0.75;;;19.60;99.90;;;19.46;94.02;100007.50;5027287;28;20037;-59
2021/07/05 04:44:01;;;;;;;4.15;0.80;;;20.10;99.90;;;19.72;92.44;100003.91;5027701;28;20055;-60
2021/07/05 04:46:27;;;;;;;1.23;0.63;;;20.50;99.90;;;20.70;89.21;100010.09;5027473;28;20040;-61
2021/07/05 04:48:56;;;;;;;3.70;0.40;;;21.40;99.90;;;22.04;82.28;100014.13;5027175;28;20465;-59
2021/07/05 04:51:23;;;;;;;2.85;0.57;;;23.00;99.90;;;23.04;78.62;100011.22;5029153;28;20511;-61
2021/07/05 04:53:53;;;;;;;1.67;0.40;;;24.30;99.90;;;24.68;71.45;100008.19;5031385;28;20544;-57
2021/07/05 04:56:19;;;;;;;0.50;0.20;;;26.80;99.90;;;23.63;74.59;100009.06;5029882;28;20045;-60
2021/07/05 04:58:45;;;;;;;1.40;0.30;;;25.80;99.90;;;23.25;75.30;100009.72;5031286;28;20033;-60
2021/07/05 05:01:11;;;;;;;2.03;0.32;;;25.30;99.90;;;21.71;80.07;99998.75;5031386;28;20029;-59
2021/07/05 05:03:39;;;;;;;0.98;0.20;;;23.70;99.90;;;21.22;81.82;99999.88;5031093;28;20104;-59
2021/07/05 05:06:06;;;;;;;0.77;0.15;;;22.80;99.90;;;20.65;83.25;99996.72;5031188;28;20034;-60
2021/07/05 05:08:32;;;;;;;1.85;0.20;;;22.00;99.90;;;20.51;84.24;99998.69;5031049;28;20607;-55
2021/07/05 05:10:58;;;;;;;1.27;0.15;;;21.60;99.90;;;22.55;77.24;100004.63;5031176;28;20163;-60
2021/07/05 05:13:24;;;;;;;2.10;0.15;;;23.30;99.90;;;24.72;68.92;100006.66;5030958;28;20536;-58
2021/07/05 05:15:50;;;;;;;0.93;0.10;;;26.20;99.90;;;25.23;66.56;100012.56;5030979;28;20094;-59
2021/07/05 05:18:16;;;;;;;0.60;0.10;;;27.40;98.40;;;24.00;69.94;100020.03;5030969;28;20029;-59
2021/07/05 05:20:42;;;;;;;1.70;0.20;;;26.40;98.60;;;23.58;71.18;100016.19;5030858;28;20490;-60
2021/07/05 05:23:08;;;;;;;0.32;0.10;;;25.60;99.90;;;24.26;69.58;100026.56;5030673;28;20044;-60
2021/07/05 05:25:34;;;;;;;6.00;0.20;;;26.10;99.90;;;25.21;65.99;100033.34;5030569;28;20045;-60
2021/07/05 05:28:00;;;;;;;1.02;0.43;;;27.50;95.90;;;24.32;69.65;100046.88;5030655;28;20087;-60
2021/07/05 05:30:26;;;;;;;1.38;0.52;;;26.40;98.60;;;24.97;68.47;100056.00;5030747;28;20030;-59
2021/07/05 05:32:55;;;;;;;0.73;0.30;;;26.80;99.60;;;24.96;69.32;100057.06;5028975;28;20148;-59
2021/07/05 05:35:23;;;;;;;1.38;0.30;;;26.50;99.90;;;28.04;60.49;100062.56;5030324;28;20559;-60
2021/07/05 05:37:51;;;;;;;2.83;0.35;;;30.00;94.20;;;30.22;54.41;100063.38;5030640;28;20468;-60
2021/07/05 05:40:18;;;;;;;2.75;0.10;;;33.20;80.50;;;30.61;51.83;100065.13;5030399;28;20025;-60
2021/07/05 05:42:44;;;;;;;4.18;0.30;;;34.50;69.10;;;31.39;48.91;100069.22;5030172;28;20544;-60
2021/07/05 05:45:10;;;;;;;1.85;0.20;;;35.10;64.40;;;31.23;49.23;100066.75;5030063;28;20677;-60
2021/07/05 05:47:36;;;;;;;4.90;0.40;;;35.50;61.10;;;31.03;50.12;100067.00;5030552;28;20171;-61
2021/07/05 05:50:05;;;;;;;3.65;0.20;;;34.80;62.50;;;29.17;53.33;100061.19;5030121;28;20499;-60
2021/07/05 05:52:31;;;;;;;0.98;0.10;;;33.10;64.90;;;27.41;58.32;100061.97;5030145;28;20484;-60
2021/07/05 05:54:57;;;;;;;1.75;0.20;;;30.50;71.90;;;26.41;60.79;100079.22;5030083;28;20038;-60
2021/07/05 05:57:27;;;;;;;0.63;0.20;;;29.10;76.20;;;25.33;64.06;100074.00;5030284;28;20069;-59
2021/07/05 06:00:01;;;;;;;1.05;0.47;;;27.70;82.20;;;24.53;66.15;100076.47;5028565;28;20041;-60
2021/07/05 06:02:28;;;;;;;4.73;0.40;;;26.60;89.80;;;25.32;65.25;100080.38;5028598;28;20033;-60
2021/07/05 06:04:55;;;;;;;2.95;0.20;;;27.10;91.70;;;25.76;64.07;100086.44;5030067;28;20120;-60
2021/07/05 06:07:21;;;;;;;1.60;0.10;;;27.80;91.60;;;26.95;59.81;100082.41;5028561;28;20052;-60
2021/07/05 06:09:47;;;;;;;1.27;0.20;;;28.80;89.40;;;28.97;53.43;100074.69;5028411;28;20065;-59
2021/07/05 06:12:14;;;;;;;3.55;0.10;;;31.70;76.70;;;30.47;49.36;100080.31;5029967;28;20090;-59
2021/07/05 06:14:40;;;;;;;0.95;0.20;;;33.70;67.20;;;30.90;48.40;100092.72;5012008;28;20484;-60
2021/07/05 06:17:06;;;;;;;2.05;0.30;;;34.80;61.80;;;30.67;49.19;100086.28;5028307;28;20026;-60
2021/07/05 06:19:32;;;;;;;0.95;0.20;;;34.90;61.30;;;31.53;46.97;100075.47;5029775;28;20037;-59
2021/07/05 06:21:58;;;;;;;0.68;0.20;;;35.40;59.20;;;31.82;46.44;100078.00;5029666;28;20476;-59
2021/07/05 06:24:24;;;;;;;0.55;0.20;;;36.00;58.00;;;31.98;45.48;100088.22;5028201;28;20128;-60
2021/07/05 06:26:50;;;;;;;0.30;0.10;;;36.40;55.50;;;32.31;44.42;100082.81;5029628;28;20040;-60
2021/07/05 06:29:16;;;;;;;2.25;0.63;;;36.80;54.40;;;32.16;44.22;100083.06;5029620;28;20399;-59
2021/07/05 06:31:42;;;;;;;0.50;0.17;;;36.20;55.10;;;31.51;45.87;100088.44;5029508;28;20037;-60
2021/07/05 06:34:08;;;;;;;3.22;0.10;;;36.00;54.90;;;31.54;45.03;100091.34;5027980;28;20120;-59
2021/07/05 06:36:35;;;;;;;3.60;0.20;;;35.60;55.70;;;31.50;46.39;100090.31;5029380;28;20047;-59
2021/07/05 06:39:02;;;;;;;0.45;0.20;;;35.70;56.00;;;31.60;46.10;100086.69;5027887;28;20128;-60
2021/07/05 06:41:28;;;;;;;2.55;0.15;;;36.10;54.60;;;31.13;46.18;100077.69;5029110;28;20048;-60
2021/07/05 06:43:54;;;;;;;4.55;0.20;;;36.00;53.90;;;30.78;46.80;100072.72;5029245;28;20061;-56
2021/07/05 06:46:21;;;;;;;0.45;0.10;;;35.50;54.20;;;31.45;45.60;100068.88;5029111;28;20041;-60
2021/07/05 06:48:48;;;;;;;3.20;0.20;;;35.60;55.30;;;31.59;45.28;100068.94;5027599;28;20052;-60
2021/07/05 06:51:15;;;;;;;0.77;0.17;;;36.00;53.40;;;31.31;45.93;100066.09;5029034;28;20554;-59
2021/07/05 06:53:41;;;;;;;2.15;0.20;;;35.60;54.80;;;29.34;50.78;100058.91;5027535;28;20068;-60
2021/07/05 06:56:07;;;;;;;0.63;0.20;;;33.40;58.30;;;28.61;52.46;100055.25;5028305;28;20030;-60
2021/07/05 06:58:34;;;;;;;0.90;0.43;;;32.10;61.30;;;28.28;53.18;100056.69;5028843;28;20527;-60
2021/07/05 07:01:02;;;;;;;0.88;0.10;;;31.50;62.30;;;28.13;54.13;100052.13;5028836;28;20032;-60
2021/07/05 07:03:28;;;;;;;2.90;0.20;;;31.30;64.10;;;27.27;56.21;100060.09;5027553;28;20029;-59
2021/07/05 07:05:55;;;;;;;0.30;0.10;;;30.40;65.80;;;27.67;55.12;100067.41;5028769;28;20505;-60
2021/07/05 07:08:22;;;;;;;2.50;0.35;;;30.40;66.50;;;28.60;51.67;100077.75;5027187;28;20041;-58
2021/07/05 07:10:48;;;;;;;0.50;0.20;;;31.80;62.50;;;29.40;49.74;100067.75;5028931;28;20400;-59
2021/07/05 07:13:15;;;;;;;2.72;0.30;;;33.10;60.20;;;29.61;48.79;100079.97;5028120;28;20048;-60
2021/07/05 07:15:46;;;;;;;4.53;0.40;;;33.40;58.70;;;28.85;51.45;100077.69;5026403;28;20082;-61
2021/07/05 07:21:02;;;;;;;0.77;0.20;;;29.90;68.70;;;26.64;57.65;100097.50;5028866;28;20523;-58
2021/07/05 07:23:28;;;;;;;1.58;0.20;;;28.50;72.90;;;26.18;57.80;100092.91;5028692;28;20046;-60
2021/07/05 07:25:55;;;;;;;1.95;0.38;;;27.70;74.50;;;26.07;57.40;100098.16;5028274;28;20025;-54
2021/07/05 07:28:21;;;;;;;5.35;0.30;;;27.10;76.10;;;26.35;56.82;100099.75;5028341;28;20087;-60
2021/07/05 07:30:46;;;;;;;1.35;0.20;;;27.10;77.80;;;26.54;56.65;100102.78;5028225;28;20109;-61
2021/07/05 07:33:12;;;;;;;1.27;0.30;;;27.20;79.00;;;26.66;55.67;100105.25;5028050;28;20041;-62
2021/07/05 07:35:38;;;;;;;0.50;0.20;;;27.30;78.80;;;26.04;56.85;100098.69;5026626;28;20156;-66
2021/07/05 07:38:05;;;;;;;2.80;0.40;;;26.90;79.10;;;25.89;58.00;100101.25;5028219;28;20436;-67
2021/07/05 07:40:35;;;;;;;2.47;0.20;;;26.50;83.10;;;25.78;57.76;100108.34;5026950;28;20084;-64
2021/07/05 07:43:01;;;;;;;1.05;0.20;;;26.40;83.10;;;26.09;56.64;100097.91;5028018;28;20065;-70
2021/07/05 07:45:27;;;;;;;1.80;0.52;;;26.50;84.20;;;26.09;56.04;100106.72;5028114;28;20037;-63
2021/07/05 07:47:53;;;;;;;4.30;0.25;;;26.60;83.00;;;26.22;55.81;100110.84;5028084;28;20099;-60
2021/07/05 07:50:20;;;;;;;1.17;0.30;;;26.60;83.60;;;26.62;54.84;100109.50;5027894;28;20041;-66
2021/07/05 07:52:47;;;;;;;0.35;0.20;;;27.00;83.40;;;26.76;55.05;100100.78;5028054;28;20044;-63
2021/07/05 07:55:15;;;;;;;3.17;0.85;;;27.30;83.80;;;27.01;55.05;100104.66;5028233;28;20049;-59
2021/07/05 07:57:41;;;;;;;1.15;0.20;;;27.40;83.90;;;26.98;55.03;100108.66;5027765;28;20087;-68
2021/07/05 08:00:11;;;;;;;3.17;0.25;;;27.50;83.80;;;27.47;54.32;100110.13;5027950;28;20033;-65
2021/07/05 08:02:38;;;;;;;2.20;0.22;;;27.80;83.80;;;27.93;53.17;100113.69;5026294;28;20030;-57
2021/07/05 08:05:05;;;;;;;0.60;0.20;;;28.30;82.90;;;27.78;53.54;100119.06;5027742;28;20052;-62
2021/07/05 08:07:32;;;;;;;5.07;0.28;;;28.20;82.80;;;27.87;52.63;100106.75;5026116;28;20045;-67
2021/07/05 08:09:58;;;;;;;1.70;0.20;;;28.40;80.90;;;27.51;53.14;100108.53;5026187;28;20045;-62
2021/07/05 08:12:24;;;;;;;0.95;0.20;;;28.30;80.20;;;27.03;53.98;100106.00;5026016;28;20033;-64
2021/07/05 08:14:50;;;;;;;1.23;0.30;;;27.80;81.20;;;27.37;53.05;100110.94;5027723;28;20093;-63
2021/07/05 08:17:16;;;;;;;2.17;0.65;;;27.90;81.20;;;27.52;52.35;100105.59;5027316;28;20034;-62
2021/07/05 08:19:42;;;;;;;2.00;0.20;;;28.10;80.10;;;27.78;51.89;100111.84;5027482;28;20033;-59
2021/07/05 08:22:09;;;;;;;1.73;0.20;;;28.30;79.50;;;28.03;51.41;100111.84;5027475;28;20043;-65
2021/07/05 08:24:35;;;;;;;4.22;0.22;;;28.60;78.90;;;28.12;51.39;100100.59;5025676;28;20515;-62
2021/07/05 08:27:01;;;;;;;0.95;0.20;;;28.80;78.40;;;27.89;52.31;100105.41;5026492;28;20043;-59
2021/07/05 08:29:27;;;;;;;1.27;0.20;;;28.60;78.90;;;28.20;51.88;100103.53;5027242;28;20037;-66
2021/07/05 08:31:53;;;;;;;4.05;0.20;;;28.80;79.10;;;28.53;51.68;100098.69;5025970;28;20033;-63
2021/07/05 08:34:19;;;;;;;1.13;0.20;;;29.10;80.00;;;28.76;51.23;100099.97;5015518;28;20049;-65
2021/07/05 08:36:45;;;;;;;1.35;0.20;;;29.40;79.60;;;28.62;51.62;100097.84;5025820;28;20678;-60
2021/07/05 08:39:13;;;;;;;0.90;0.20;;;29.30;79.00;;;28.51;51.98;100090.09;5020639;28;20389;-64
2021/07/05 08:41:39;;;;;;;1.83;0.20;;;29.20;79.40;;;28.61;52.16;100088.22;5007775;28;20045;-67
2021/07/05 08:44:06;;;;;;;1.25;0.20;;;29.10;80.30;;;28.89;51.23;100076.06;5013198;28;20493;-63
2021/07/05 08:46:34;;;;;;;0.77;0.20;;;29.40;79.40;;;28.45;52.38;100077.78;5026266;28;20442;-59
2021/07/05 08:49:00;;;;;;;0.90;0.10;;;29.20;80.00;;;28.35;52.34;100074.09;5006037;28;20119;-59
2021/07/05 08:51:27;;;;;;;0.30;0.20;;;29.10;79.50;;;28.54;51.95;100087.69;5021447;28;20044;-61
2021/07/05 08:53:55;;;;;;;1.40;0.20;;;29.10;79.90;;;28.84;50.42;100089.47;5018220;28;20064;-63
2021/07/05 08:56:22;;;;;;;1.15;0.10;;;29.40;77.60;;;28.79;49.61;100081.47;5024225;28;20177;-63
2021/07/05 08:58:48;;;;;;;0.82;0.20;;;29.30;76.70;;;29.53;48.09;100087.81;5021353;28;20088;-64
2021/07/05 09:01:15;;;;;;;1.88;0.20;;;29.90;75.00;;;30.00;46.02;100088.00;5007659;28;20748;-61
2021/07/05 09:03:42;;;;;;;1.17;0.10;;;30.20;73.20;;;29.90;46.53;100088.06;5006733;28;20062;-61
2021/07/05 09:06:14;;;;;;;0.95;0.20;;;30.40;73.00;;;29.68;45.99;100093.88;5007588;28;20041;-65
2021/07/05 09:09:05;;;;;;;0.93;0.13;;;30.20;70.90;;;29.74;45.98;100099.22;5021691;28;20033;-64
2021/07/05 09:11:48;;;;;;;1.30;0.10;;;30.30;71.70;;;30.01;45.41;100108.41;5023700;28;20477;-64
2021/07/05 09:14:20;;;;;;;0.57;0.10;;;30.40;70.40;;;29.86;45.37;100108.50;5023957;28;20076;-62
2021/07/05 09:16:48;;;;;;;1.10;0.10;;;30.40;69.20;;;30.20;44.24;100118.47;5024429;28;20496;-62
2021/07/05 09:19:19;;;;;;;1.52;0.10;;;30.60;69.30;;;30.64;42.85;100119.13;5021026;28;20049;-60
2021/07/05 09:21:49;;;;;;;0.10;0.00;;;31.00;67.70;;;30.08;41.59;100118.84;5026850;28;20155;-65
2021/07/05 09:24:30;;;;;;;0.85;0.10;;;30.90;64.60;;;29.75;40.67;100125.00;5021475;28;20076;-63
2021/07/05 09:27:26;;;;;;;0.77;0.10;;;30.60;62.00;;;29.49;43.09;100118.97;5007917;28;20037;-61
2021/07/05 09:29:52;;;;;;;0.20;0.10;;;30.20;65.30;;;29.93;44.47;100129.66;5020406;28;20069;-61
2021/07/05 09:32:29;;;;;;;0.25;0.10;;;30.20;67.70;;;29.83;43.18;100125.16;5026156;28;20113;-63
2021/07/05 09:34:56;;;;;;;0.40;0.10;;;30.40;66.40;;;29.87;44.19;100123.53;5019292;28;20057;-62
2021/07/05 09:37:32;;;;;;;0.20;0.10;;;30.40;67.90;;;30.38;44.19;100121.22;5016965;28;20029;-60
2021/07/05 09:40:04;;;;;;;1.50;0.10;;;30.80;67.80;;;30.60;43.73;100114.59;5009521;28;20519;-64
2021/07/05 09:42:40;;;;;;;0.88;0.13;;;31.00;67.30;;;30.62;42.72;100115.94;5029204;28;20523;-61
2021/07/05 09:45:23;;;;;;;1.65;0.10;;;31.10;65.90;;;30.21;42.30;100103.97;5022432;28;20033;-60
2021/07/05 09:48:25;;;;;;;0.57;0.10;;;30.80;65.90;;;29.81;42.28;100100.47;5028368;28;20049;-64
2021/07/05 09:51:04;;;;;;;1.17;0.00;;;30.40;64.20;;;29.83;41.45;100101.00;5011083;28;20176;-61
2021/07/05 09:53:43;;;;;;;0.52;0.10;;;30.20;65.00;;;30.26;42.07;100102.00;5021324;28;20042;-67
2021/07/05 09:56:41;;;;;;;0.20;0.10;;;30.40;65.70;;;30.66;40.96;100095.44;5018777;28;20051;-64
2021/07/05 09:59:20;;;;;;;0.38;0.10;;;30.90;64.40;;;30.79;41.17;100099.31;5017522;28;20084;-64
2021/07/05 10:01:53;;;;;;;0.25;0.10;;;31.10;63.40;;;30.94;40.33;100098.34;5028799;28;20510;-63
2021/07/05 10:04:33;;;;;;;0.20;0.10;;;31.30;63.10;;;30.96;40.40;100093.47;5025974;28;20037;-61
2021/07/05 10:07:02;;;;;;;0.20;0.10;;;31.30;62.70;;;31.31;39.83;100087.63;5007920;28;20050;-62
2021/07/05 10:09:37;;;;;;;0.40;0.10;;;31.60;61.90;;;31.48;39.60;100089.81;5017471;28;20704;-65
2021/07/05 10:12:30;;;;;;;0.30;0.10;;;31.90;62.10;;;31.44;40.07;100085.31;5017085;28;20474;-61
2021/07/05 10:15:03;;;;;;;0.28;0.10;;;31.90;61.80;;;31.48;39.93;100092.50;5029853;28;20037;-60
2021/07/05 10:17:33;;;;;;;6.78;0.17;;;31.90;62.20;;;31.58;39.75;100088.88;5028194;28;20045;-66
2021/07/05 10:20:00;;;;;;;0.20;0.10;;;32.00;61.70;;;31.71;39.77;100093.50;5028304;28;20487;-66
2021/07/05 10:22:27;;;;;;;0.40;0.00;;;32.00;61.50;;;31.75;39.18;100099.91;5029533;28;20022;-66